sensor_id;sensor_type;location;lat;lon;timestamp;pressure;altitude;pressure_sealevel;temperature;humidity
3590;BME280;1809;48.470;9.226;2023-03-15T00:02:10;145855.13;;;1.70;100.00
3590;BME280;1809;48.470;9.226;2023-03-15T00:04:35;145505.72;;;1.67;100.00
3590;BME280;1809;48.470;9.226;2023-03-15T00:07:01;145500.84;;;1.65;100.00
3590;BME280;1809;48.470;9.226;2023-03-15T00:09:27;145522.75;;;1.74;100.00
3590;BME280;1809;48.470;9.226;2023-03-15T00:11:52;145520.31;;;1.73;100.00
3590;BME280;1809;48.470;9.226;2023-03-15T00:14:20;145163.69;;;1.67;100.00
3590;BME280;1809;48.470;9.226;2023-03-15T00:16:46;145163.69;;;1.67;100.00
3590;BME280;1809;48.470;9.226;2023-03-15T00:19:12;145170.94;;;1.70;100.00
3590;BME280;1809;48.470;9.226;2023-03-15T00:21:38;144831.34;;;1.71;100.00
3590;BME280;1809;48.470;9.226;2023-03-15T00:24:05;144828.91;;;1.70;100.00
3590;BME280;1809;48.470;9.226;2023-03-15T00:26:30;145179.44;;;1.74;100.00
3590;BME280;1809;48.470;9.226;2023-03-15T00:28:55;145190.31;;;1.78;100.00
3590;BME280;1809;48.470;9.226;2023-03-15T00:31:23;145207.31;;;1.85;100.00
3590;BME280;1809;48.470;9.226;2023-03-15T00:33:49;145202.47;;;1.83;100.00
3590;BME280;1809;48.470;9.226;2023-03-15T00:36:18;145197.59;;;1.81;100.00
3590;BME280;1809;48.470;9.226;2023-03-15T00:38:48;144855.50;;;1.81;100.00
3590;BME280;1809;48.470;9.226;2023-03-15T00:41:15;144507.41;;;1.79;100.00
3590;BME280;1809;48.470;9.226;2023-03-15T00:43:42;144515.84;;;1.82;100.00
3590;BME280;1809;48.470;9.226;2023-03-15T00:46:09;144152.13;;;1.73;100.00
3590;BME280;1809;48.470;9.226;2023-03-15T00:48:34;144152.13;;;1.73;100.00
3590;BME280;1809;48.470;9.226;2023-03-15T00:51:08;144165.38;;;1.79;100.00
3590;BME280;1809;48.470;9.226;2023-03-15T00:53:35;144173.78;;;1.82;100.00
3590;BME280;1809;48.470;9.226;2023-03-15T00:56:05;143819.78;;;1.77;100.00
3590;BME280;1809;48.470;9.226;2023-03-15T00:58:32;143829.38;;;1.81;100.00
3590;BME280;1809;48.470;9.226;2023-03-15T01:01:03;144171.38;;;1.81;100.00
3590;BME280;1809;48.470;9.226;2023-03-15T01:03:28;143823.38;;;1.79;100.00
3590;BME280;1809;48.470;9.226;2023-03-15T01:05:54;143470.66;;;1.74;100.00
3590;BME280;1809;48.470;9.226;2023-03-15T01:08:19;143131.13;;;1.75;100.00
3590;BME280;1809;48.470;9.226;2023-03-15T01:10:44;142782.09;;;1.72;100.00
3590;BME280;1809;48.470;9.226;2023-03-15T01:13:10;142790.44;;;1.76;100.00
3590;BME280;1809;48.470;9.226;2023-03-15T01:15:35;142414.13;;;1.61;100.00
3590;BME280;1809;48.470;9.226;2023-03-15T01:18:00;142435.53;;;1.70;100.00
3590;BME280;1809;48.470;9.226;2023-03-15T01:20:26;142790.44;;;1.76;100.00
3590;BME280;1809;48.470;9.226;2023-03-15T01:22:51;143143.09;;;1.80;100.00
3590;BME280;1809;48.470;9.226;2023-03-15T01:25:16;143517.34;;;1.94;100.00
3590;BME280;1809;48.470;9.226;2023-03-15T01:27:42;143497.00;;;1.85;100.00
3590;BME280;1809;48.470;9.226;2023-03-15T01:30:07;143157.44;;;1.86;100.00
3590;BME280;1809;48.470;9.226;2023-03-15T01:32:33;142798.78;;;1.79;100.00
3590;BME280;1809;48.470;9.226;2023-03-15T01:34:58;142808.34;;;1.83;100.00
3590;BME280;1809;48.470;9.226;2023-03-15T01:37:25;142449.78;;;1.76;100.00
3590;BME280;1809;48.470;9.226;2023-03-15T01:39:50;142110.38;;;1.77;100.00
3590;BME280;1809;48.470;9.226;2023-03-15T01:42:16;142122.22;;;1.82;100.00
3590;BME280;1809;48.470;9.226;2023-03-15T01:47:14;141744.91;;;1.67;100.00
3590;BME280;1809;48.470;9.226;2023-03-15T01:49:40;141766.19;;;1.76;100.00
3590;BME280;1809;48.470;9.226;2023-03-15T01:52:09;141773.28;;;1.79;100.00
3590;BME280;1809;48.470;9.226;2023-03-15T01:54:40;141763.81;;;1.75;100.00
3590;BME280;1809;48.470;9.226;2023-03-15T01:57:11;141768.56;;;1.77;100.00
3590;BME280;1809;48.470;9.226;2023-03-15T02:00:10;142109.16;;;1.77;100.00
3590;BME280;1809;48.470;9.226;2023-03-15T02:02:36;142105.59;;;1.75;100.00
3590;BME280;1809;48.470;9.226;2023-03-15T02:05:08;142111.50;;;1.78;100.00
3590;BME280;1809;48.470;9.226;2023-03-15T02:07:38;141744.91;;;1.67;100.00
3590;BME280;1809;48.470;9.226;2023-03-15T02:10:10;141383.16;;;1.58;100.00
3590;BME280;1809;48.470;9.226;2023-03-15T02:12:44;141367.81;;;1.52;100.00
3590;BME280;1809;48.470;9.226;2023-03-15T02:15:11;141710.63;;;1.52;100.00
3590;BME280;1809;48.470;9.226;2023-03-15T02:17:40;141709.44;;;1.52;100.00
3590;BME280;1809;48.470;9.226;2023-03-15T02:20:26;141327.69;;;1.35;100.00
3590;BME280;1809;48.470;9.226;2023-03-15T02:25:42;140947.41;;;1.18;100.00
3590;BME280;1809;48.470;9.226;2023-03-15T02:28:12;140918.00;;;1.05;100.00
3590;BME280;1809;48.470;9.226;2023-03-15T02:30:37;140913.25;;;1.03;100.00
3590;BME280;1809;48.470;9.226;2023-03-15T02:33:06;140903.88;;;0.99;100.00
3590;BME280;1809;48.470;9.226;2023-03-15T02:35:33;140543.84;;;0.91;100.00
3590;BME280;1809;48.470;9.226;2023-03-15T02:37:58;140522.72;;;0.82;100.00
3590;BME280;1809;48.470;9.226;2023-03-15T02:40:29;140518.06;;;0.80;100.00
3590;BME280;1809;48.470;9.226;2023-03-15T02:42:57;140863.88;;;0.82;100.00
3590;BME280;1809;48.470;9.226;2023-03-15T02:45:24;140847.38;;;0.75;100.00
3590;BME280;1809;48.470;9.226;2023-03-15T02:47:50;140842.72;;;0.73;100.00
3590;BME280;1809;48.470;9.226;2023-03-15T02:50:16;140833.28;;;0.69;100.00
3590;BME280;1809;48.470;9.226;2023-03-15T02:52:41;140478.16;;;0.63;100.00
3590;BME280;1809;48.470;9.226;2023-03-15T02:55:07;140833.28;;;0.69;100.00
3590;BME280;1809;48.470;9.226;2023-03-15T02:57:33;140838.00;;;0.71;100.00
3590;BME280;1809;48.470;9.226;2023-03-15T02:59:58;140830.97;;;0.68;100.00
3590;BME280;1809;48.470;9.226;2023-03-15T03:02:24;140835.66;;;0.70;100.00
3590;BME280;1809;48.470;9.226;2023-03-15T03:04:50;140839.16;;;0.72;100.00
3590;BME280;1809;48.470;9.226;2023-03-15T03:07:17;141172.06;;;0.68;100.00
3590;BME280;1809;48.470;9.226;2023-03-15T03:09:42;140821.53;;;0.64;100.00
3590;BME280;1809;48.470;9.226;2023-03-15T03:12:08;140461.75;;;0.56;100.00
3590;BME280;1809;48.470;9.226;2023-03-15T03:14:33;140466.44;;;0.58;100.00
3590;BME280;1809;48.470;9.226;2023-03-15T03:16:58;140450.00;;;0.51;100.00
3590;BME280;1809;48.470;9.226;2023-03-15T03:19:24;140459.41;;;0.55;100.00
3590;BME280;1809;48.470;9.226;2023-03-15T03:21:53;140106.72;;;0.50;100.00
3590;BME280;1809;48.470;9.226;2023-03-15T03:24:19;140448.81;;;0.50;100.00
3590;BME280;1809;48.470;9.226;2023-03-15T03:26:45;140468.78;;;0.59;100.00
3590;BME280;1809;48.470;9.226;2023-03-15T03:29:10;140107.88;;;0.50;100.00
3590;BME280;1809;48.470;9.226;2023-03-15T03:31:36;140111.44;;;0.52;100.00
3590;BME280;1809;48.470;9.226;2023-03-15T03:34:02;139737.81;;;0.38;100.00
3590;BME280;1809;48.470;9.226;2023-03-15T03:36:27;139407.53;;;0.42;100.00
3590;BME280;1809;48.470;9.226;2023-03-15T03:38:53;139392.41;;;0.36;100.00
3590;BME280;1809;48.470;9.226;2023-03-15T03:41:19;139048.16;;;0.34;100.00
3590;BME280;1809;48.470;9.226;2023-03-15T03:43:45;138694.72;;;0.29;100.00
3590;BME280;1809;48.470;9.226;2023-03-15T03:46:11;138351.81;;;0.28;100.00
3590;BME280;1809;48.470;9.226;2023-03-15T03:48:36;138347.16;;;0.26;100.00
3590;BME280;1809;48.470;9.226;2023-03-15T03:51:01;138709.78;;;0.35;100.00
3590;BME280;1809;48.470;9.226;2023-03-15T03:53:27;138720.22;;;0.40;100.00
3590;BME280;1809;48.470;9.226;2023-03-15T03:55:52;138358.75;;;0.31;100.00
3590;BME280;1809;48.470;9.226;2023-03-15T03:58:19;138005.41;;;0.25;100.00
3590;BME280;1809;48.470;9.226;2023-03-15T04:00:44;138015.81;;;0.30;100.00
3590;BME280;1809;48.470;9.226;2023-03-15T04:03:10;137654.56;;;0.21;100.00
3590;BME280;1809;48.470;9.226;2023-03-15T04:05:36;137661.44;;;0.24;100.00
3590;BME280;1809;48.470;9.226;2023-03-15T04:08:01;137316.38;;;0.22;100.00
3590;BME280;1809;48.470;9.226;2023-03-15T04:10:26;137306.03;;;0.17;100.00
3590;BME280;1809;48.470;9.226;2023-03-15T04:12:53;136950.72;;;0.11;100.00
3590;BME280;1809;48.470;9.226;2023-03-15T04:15:19;137306.03;;;0.17;100.00
3590;BME280;1809;48.470;9.226;2023-03-15T04:17:47;136943.88;;;0.08;100.00
3590;BME280;1809;48.470;9.226;2023-03-15T04:20:13;136594.38;;;0.04;100.00
3590;BME280;1809;48.470;9.226;2023-03-15T04:22:41;136947.31;;;0.09;100.00
3590;BME280;1809;48.470;9.226;2023-03-15T04:25:17;134566.59;;;0.10;100.00
3590;BME280;1809;48.470;9.226;2023-03-15T04:27:43;134577.84;;;0.15;100.00
3590;BME280;1809;48.470;9.226;2023-03-15T04:30:10;134228.72;;;0.11;100.00
3590;BME280;1809;48.470;9.226;2023-03-15T04:32:35;134568.84;;;0.11;100.00
3590;BME280;1809;48.470;9.226;2023-03-15T04:35:01;134566.59;;;0.10;100.00
3590;BME280;1809;48.470;9.226;2023-03-15T04:37:27;134568.84;;;0.11;100.00
3590;BME280;1809;48.470;9.226;2023-03-15T04:39:52;134215.28;;;0.05;100.00
3590;BME280;1809;48.470;9.226;2023-03-15T04:42:18;134195.13;;;-0.05;100.00
3590;BME280;1809;48.470;9.226;2023-03-15T04:44:43;134903.41;;;0.08;100.00
3590;BME280;1809;48.470;9.226;2023-03-15T04:47:09;134906.75;;;0.10;100.00
3590;BME280;1809;48.470;9.226;2023-03-15T04:49:34;135959.25;;;0.24;100.00
3590;BME280;1809;48.470;9.226;2023-03-15T04:52:00;136300.75;;;0.24;100.00
3590;BME280;1809;48.470;9.226;2023-03-15T04:54:25;136998.75;;;0.32;100.00
3590;BME280;1809;48.470;9.226;2023-03-15T04:56:51;136995.34;;;0.30;100.00
3590;BME280;1809;48.470;9.226;2023-03-15T04:59:16;137010.22;;;0.37;100.00
3590;BME280;1809;48.470;9.226;2023-03-15T05:01:41;137013.63;;;0.38;100.00
3590;BME280;1809;48.470;9.226;2023-03-15T05:04:07;137010.22;;;0.37;100.00
3590;BME280;1809;48.470;9.226;2023-03-15T05:06:32;136646.88;;;0.27;100.00
3590;BME280;1809;48.470;9.226;2023-03-15T05:08:58;136654.84;;;0.30;100.00
3590;BME280;1809;48.470;9.226;2023-03-15T05:11:23;136310.97;;;0.29;100.00
3590;BME280;1809;48.470;9.226;2023-03-15T05:13:48;135975.13;;;0.31;100.00
3590;BME280;1809;48.470;9.226;2023-03-15T05:16:14;135612.09;;;0.21;100.00
3590;BME280;1809;48.470;9.226;2023-03-15T05:18:39;135251.50;;;0.12;100.00
3590;BME280;1809;48.470;9.226;2023-03-15T05:21:05;134550.91;;;0.03;100.00
3590;BME280;1809;48.470;9.226;2023-03-15T05:23:31;134183.94;;;-0.10;100.00
3590;BME280;1809;48.470;9.226;2023-03-15T05:25:58;134186.16;;;-0.09;100.00
3590;BME280;1809;48.470;9.226;2023-03-15T05:28:24;134183.94;;;-0.10;100.00
3590;BME280;1809;48.470;9.226;2023-03-15T05:30:51;134534.03;;;-0.05;100.00
3590;BME280;1809;48.470;9.226;2023-03-15T05:33:17;134907.88;;;0.10;100.00
3590;BME280;1809;48.470;9.226;2023-03-15T05:35:42;134534.03;;;-0.05;100.00
3590;BME280;1809;48.470;9.226;2023-03-15T05:38:11;134168.25;;;-0.17;100.00
3590;BME280;1809;48.470;9.226;2023-03-15T05:40:43;133816.03;;;-0.22;100.00
3590;BME280;1809;48.470;9.226;2023-03-15T05:43:10;133803.69;;;-0.28;100.00
3590;BME280;1809;48.470;9.226;2023-03-15T05:45:36;133791.44;;;-0.33;100.00
3590;BME280;1809;48.470;9.226;2023-03-15T05:48:01;133791.44;;;-0.33;100.00
3590;BME280;1809;48.470;9.226;2023-03-15T05:50:27;134136.88;;;-0.31;100.00
3590;BME280;1809;48.470;9.226;2023-03-15T05:52:53;134483.50;;;-0.28;100.00
3590;BME280;1809;48.470;9.226;2023-03-15T05:55:18;134843.72;;;-0.19;100.00
3590;BME280;1809;48.470;9.226;2023-03-15T05:57:44;135181.53;;;-0.20;100.00
3590;BME280;1809;48.470;9.226;2023-03-15T06:00:10;135179.25;;;-0.21;100.00
3590;BME280;1809;48.470;9.226;2023-03-15T06:02:37;135532.88;;;-0.15;100.00
3590;BME280;1809;48.470;9.226;2023-03-15T06:05:02;135543.06;;;-0.10;100.00
3590;BME280;1809;48.470;9.226;2023-03-15T06:07:27;135888.88;;;-0.08;100.00
3590;BME280;1809;48.470;9.226;2023-03-15T06:09:53;135888.88;;;-0.08;100.00
3590;BME280;1809;48.470;9.226;2023-03-15T06:12:18;136215.44;;;-0.14;100.00
3590;BME280;1809;48.470;9.226;2023-03-15T06:14:44;136213.16;;;-0.15;100.00
3590;BME280;1809;48.470;9.226;2023-03-15T06:17:09;137286.56;;;0.09;100.00
3590;BME280;1809;48.470;9.226;2023-03-15T06:19:35;136924.44;;;-0.01;100.00
3590;BME280;1809;48.470;9.226;2023-03-15T06:22:00;137279.69;;;0.06;100.00
3590;BME280;1809;48.470;9.226;2023-03-15T06:24:25;137645.34;;;0.17;100.00
3590;BME280;1809;48.470;9.226;2023-03-15T06:26:50;137624.66;;;0.08;100.00
3590;BME280;1809;48.470;9.226;2023-03-15T06:29:18;138006.56;;;0.26;100.00
3590;BME280;1809;48.470;9.226;2023-03-15T06:31:46;139459.94;;;0.65;100.00
3590;BME280;1809;48.470;9.226;2023-03-15T06:34:14;140946.22;;;1.18;100.00
3590;BME280;1809;48.470;9.226;2023-03-15T06:36:39;141683.38;;;1.41;100.00
3590;BME280;1809;48.470;9.226;2023-03-15T06:39:07;142411.75;;;1.60;100.00
3590;BME280;1809;48.470;9.226;2023-03-15T06:41:32;142423.63;;;1.65;100.00
3590;BME280;1809;48.470;9.226;2023-03-15T06:43:57;142079.53;;;1.64;100.00
3590;BME280;1809;48.470;9.226;2023-03-15T06:46:23;141752.00;;;1.70;100.00
3590;BME280;1809;48.470;9.226;2023-03-15T06:48:48;140668.25;;;1.45;100.00
3590;BME280;1809;48.470;9.226;2023-03-15T06:51:14;139263.03;;;1.28;100.00
3590;BME280;1809;48.470;9.226;2023-03-15T06:53:39;138917.19;;;1.26;100.00
3590;BME280;1809;48.470;9.226;2023-03-15T06:56:04;138223.31;;;1.21;100.00
3590;BME280;1809;48.470;9.226;2023-03-15T06:58:30;137558.31;;;1.28;100.00
3590;BME280;1809;48.470;9.226;2023-03-15T07:00:55;136875.06;;;1.28;100.00
3590;BME280;1809;48.470;9.226;2023-03-15T07:03:21;135829.50;;;1.18;100.00
3590;BME280;1809;48.470;9.226;2023-03-15T07:05:47;135873.66;;;1.37;100.00
3590;BME280;1809;48.470;9.226;2023-03-15T07:08:16;135201.91;;;1.42;100.00
3590;BME280;1809;48.470;9.226;2023-03-15T07:10:42;134886.81;;;1.53;100.00
3590;BME280;1809;48.470;9.226;2023-03-15T07:13:07;134560.44;;;1.60;100.00
3590;BME280;1809;48.470;9.226;2023-03-15T07:15:35;133884.13;;;1.62;100.00
3590;BME280;1809;48.470;9.226;2023-03-15T07:18:01;133225.63;;;1.73;100.00
3590;BME280;1809;48.470;9.226;2023-03-15T07:20:26;130829.06;;;1.68;100.00
3590;BME280;1809;48.470;9.226;2023-03-15T07:22:51;127764.38;;;1.68;100.00
3590;BME280;1809;48.470;9.226;2023-03-15T07:25:17;125756.16;;;1.84;100.00
3590;BME280;1809;48.470;9.226;2023-03-15T07:27:51;122007.06;;;1.80;100.00
3590;BME280;1809;48.470;9.226;2023-03-15T07:30:17;117943.50;;;1.87;100.00
3590;BME280;1809;48.470;9.226;2023-03-15T07:32:43;114560.28;;;1.92;100.00
3590;BME280;1809;48.470;9.226;2023-03-15T07:35:09;111207.38;;;2.13;100.00
3590;BME280;1809;48.470;9.226;2023-03-15T07:37:34;104448.13;;;2.22;100.00
3590;BME280;1809;48.470;9.226;2023-03-15T07:40:00;101397.84;;;2.18;100.00
3590;BME280;1809;48.470;9.226;2023-03-15T07:42:34;95012.00;;;2.39;100.00
3590;BME280;1809;48.470;9.226;2023-03-15T07:45:00;89955.50;;;2.41;100.00
3590;BME280;1809;48.470;9.226;2023-03-15T07:47:25;88958.22;;;2.51;100.00
3590;BME280;1809;48.470;9.226;2023-03-15T07:49:53;77854.06;;;2.52;100.00
3590;BME280;1809;48.470;9.226;2023-03-15T07:52:18;69137.84;;;2.59;100.00
3590;BME280;1809;48.470;9.226;2023-03-15T07:54:45;60097.50;;;2.57;100.00
3590;BME280;1809;48.470;9.226;2023-03-15T07:57:11;41761.22;;;2.56;100.00
3590;BME280;1809;48.470;9.226;2023-03-15T07:59:36;7470.19;;;2.76;100.00
3590;BME280;1809;48.470;9.226;2023-03-15T08:02:02;-4082.19;;;2.82;100.00
3590;BME280;1809;48.470;9.226;2023-03-15T08:04:27;-15809.81;;;2.94;100.00
3590;BME280;1809;48.470;9.226;2023-03-15T08:06:52;-16250.72;;;2.93;100.00
3590;BME280;1809;48.470;9.226;2023-03-15T08:09:17;-16253.53;;;3.03;100.00
3590;BME280;1809;48.470;9.226;2023-03-15T08:11:43;-16257.06;;;3.16;100.00
3590;BME280;1809;48.470;9.226;2023-03-15T08:14:08;-16258.31;;;3.20;100.00
3590;BME280;1809;48.470;9.226;2023-03-15T08:16:36;-16259.88;;;3.26;100.00
3590;BME280;1809;48.470;9.226;2023-03-15T08:19:01;-16260.16;;;3.27;100.00
3590;BME280;1809;48.470;9.226;2023-03-15T08:21:27;-16267.19;;;3.52;100.00
3590;BME280;1809;48.470;9.226;2023-03-15T08:23:52;-16273.53;;;3.75;100.00
3590;BME280;1809;48.470;9.226;2023-03-15T08:26:17;-16276.63;;;3.86;100.00
3590;BME280;1809;48.470;9.226;2023-03-15T08:28:46;-16279.03;;;3.95;100.00
3590;BME280;1809;48.470;9.226;2023-03-15T08:31:11;-16284.38;;;4.14;100.00
3590;BME280;1809;48.470;9.226;2023-03-15T08:33:38;-16284.09;;;4.13;100.00
3590;BME280;1809;48.470;9.226;2023-03-15T08:36:04;-16288.19;;;4.27;100.00
3590;BME280;1809;48.470;9.226;2023-03-15T08:38:30;-16290.72;;;4.37;100.00
3590;BME280;1809;48.470;9.226;2023-03-15T08:40:56;-16294.66;;;4.51;100.00
3590;BME280;1809;48.470;9.226;2023-03-15T08:43:21;-16299.44;;;4.68;100.00
3590;BME280;1809;48.470;9.226;2023-03-15T08:45:47;-16308.16;;;4.99;100.00
3590;BME280;1809;48.470;9.226;2023-03-15T08:48:14;-16312.66;;;5.15;100.00
3590;BME280;1809;48.470;9.226;2023-03-15T08:50:39;-16317.88;;;5.34;100.00
3590;BME280;1809;48.470;9.226;2023-03-15T08:53:04;-16321.09;;;5.46;100.00
3590;BME280;1809;48.470;9.226;2023-03-15T08:55:29;-16320.53;;;5.43;100.00
3590;BME280;1809;48.470;9.226;2023-03-15T08:57:55;-16325.06;;;5.60;100.00
3590;BME280;1809;48.470;9.226;2023-03-15T09:00:20;-16327.59;;;5.69;100.00
3590;BME280;1809;48.470;9.226;2023-03-15T09:02:47;-16330.25;;;5.78;100.00
3590;BME280;1809;48.470;9.226;2023-03-15T09:05:13;-16329.28;;;5.75;100.00
3590;BME280;1809;48.470;9.226;2023-03-15T09:07:40;-16333.22;;;5.89;100.00
3590;BME280;1809;48.470;9.226;2023-03-15T09:10:08;-16336.88;;;6.02;100.00
3590;BME280;1809;48.470;9.226;2023-03-15T09:12:33;-16344.63;;;6.30;100.00
3590;BME280;1809;48.470;9.226;2023-03-15T09:14:58;-16348.13;;;6.42;100.00
3590;BME280;1809;48.470;9.226;2023-03-15T09:17:24;-16353.91;;;6.63;100.00
3590;BME280;1809;48.470;9.226;2023-03-15T09:19:49;-16354.59;;;6.66;100.00
3590;BME280;1809;48.470;9.226;2023-03-15T09:22:16;-16359.81;;;6.84;100.00
3590;BME280;1809;48.470;9.226;2023-03-15T09:24:41;-16367.25;;;7.11;100.00
3590;BME280;1809;48.470;9.226;2023-03-15T09:27:07;-16370.06;;;7.21;100.00
3590;BME280;1809;48.470;9.226;2023-03-15T09:29:32;-16373.59;;;7.34;100.00
3590;BME280;1809;48.470;9.226;2023-03-15T09:31:58;-16372.88;;;7.31;100.00
3590;BME280;1809;48.470;9.226;2023-03-15T09:34:26;-16374.28;;;7.36;100.00
3590;BME280;1809;48.470;9.226;2023-03-15T09:36:51;-16386.94;;;7.82;100.00
3590;BME280;1809;48.470;9.226;2023-03-15T09:39:19;-16390.03;;;7.93;100.00
3590;BME280;1809;48.470;9.226;2023-03-15T09:41:55;-16390.75;;;7.95;100.00
3590;BME280;1809;48.470;9.226;2023-03-15T09:44:40;-16382.31;;;7.65;100.00
3590;BME280;1809;48.470;9.226;2023-03-15T09:50:04;-16389.75;;;7.92;100.00
3590;BME280;1809;48.470;9.226;2023-03-15T09:52:40;-16392.44;;;8.01;100.00
3590;BME280;1809;48.470;9.226;2023-03-15T09:55:41;-16401.28;;;8.33;100.00
3590;BME280;1809;48.470;9.226;2023-03-15T09:58:15;-16402.13;;;8.36;100.00
3590;BME280;1809;48.470;9.226;2023-03-15T10:03:33;-16390.31;;;7.94;100.00
3590;BME280;1809;48.470;9.226;2023-03-15T10:06:09;-16393.28;;;8.04;100.00
3590;BME280;1809;48.470;9.226;2023-03-15T10:08:36;-16401.00;;;8.32;100.00
3590;BME280;1809;48.470;9.226;2023-03-15T10:16:10;-16397.06;;;8.18;100.00
3590;BME280;1809;48.470;9.226;2023-03-15T10:24:27;-16381.31;;;7.62;100.00
3590;BME280;1809;48.470;9.226;2023-03-15T10:26:57;-16373.03;;;7.32;100.00
3590;BME280;1809;48.470;9.226;2023-03-15T10:29:24;-16366.56;;;7.09;100.00
3590;BME280;1809;48.470;9.226;2023-03-15T10:31:51;-16364.16;;;7.00;100.00
3590;BME280;1809;48.470;9.226;2023-03-15T10:34:18;-16367.53;;;7.12;100.00
3590;BME280;1809;48.470;9.226;2023-03-15T10:36:48;-16368.66;;;7.16;100.00
3590;BME280;1809;48.470;9.226;2023-03-15T10:39:14;-16371.47;;;7.26;100.00
3590;BME280;1809;48.470;9.226;2023-03-15T10:41:44;-16383.84;;;7.71;100.00
3590;BME280;1809;48.470;9.226;2023-03-15T10:44:15;-16390.19;;;7.93;100.00
3590;BME280;1809;48.470;9.226;2023-03-15T10:46:41;-16394.53;;;8.09;100.00
3590;BME280;1809;48.470;9.226;2023-03-15T10:51:37;-16409.03;;;8.61;100.00
3590;BME280;1809;48.470;9.226;2023-03-15T10:56:36;-16395.25;;;8.11;100.00
3590;BME280;1809;48.470;9.226;2023-03-15T10:59:02;-16390.03;;;7.93;100.00
3590;BME280;1809;48.470;9.226;2023-03-15T11:01:30;-16389.75;;;7.92;100.00
3590;BME280;1809;48.470;9.226;2023-03-15T11:04:13;-16381.19;;;7.61;100.00
3590;BME280;1809;48.470;9.226;2023-03-15T11:09:09;-16374.00;;;7.35;100.00
3590;BME280;1809;48.470;9.226;2023-03-15T11:12:06;-16384.41;;;7.73;100.00
3590;BME280;1809;48.470;9.226;2023-03-15T11:14:39;-16393.28;;;8.04;100.00
3590;BME280;1809;48.470;9.226;2023-03-15T11:17:10;-16397.06;;;8.18;100.00
3590;BME280;1809;48.470;9.226;2023-03-15T11:19:50;-16402.00;;;8.36;100.00
3590;BME280;1809;48.470;9.226;2023-03-15T11:22:15;-16402.41;;;8.37;100.00
3590;BME280;1809;48.470;9.226;2023-03-15T11:24:41;-16401.72;;;8.35;100.00
3590;BME280;1809;48.470;9.226;2023-03-15T11:27:17;-16402.13;;;8.36;100.00
3590;BME280;1809;48.470;9.226;2023-03-15T11:29:53;-16395.66;;;8.13;100.00
3590;BME280;1809;48.470;9.226;2023-03-15T11:32:23;-16401.28;;;8.33;100.00
3590;BME280;1809;48.470;9.226;2023-03-15T11:34:59;-16401.00;;;8.32;100.00
3590;BME280;1809;48.470;9.226;2023-03-15T11:37:50;-16409.16;;;8.61;100.00
3590;BME280;1809;48.470;9.226;2023-03-15T11:40:35;-16423.22;;;9.12;100.00
3590;BME280;1809;48.470;9.226;2023-03-15T11:43:05;-16428.28;;;9.30;100.00
3590;BME280;1809;48.470;9.226;2023-03-15T11:45:58;-16431.66;;;9.42;100.00
3590;BME280;1809;48.470;9.226;2023-03-15T11:48:30;-16446.53;;;9.96;100.00
3590;BME280;1809;48.470;9.226;2023-03-15T11:50:58;-16443.72;;;9.86;100.00
3590;BME280;1809;48.470;9.226;2023-03-15T11:53:30;-16450.47;;;10.10;100.00
3590;BME280;1809;48.470;9.226;2023-03-15T11:56:22;-16442.88;;;9.83;100.00
3590;BME280;1809;48.470;9.226;2023-03-15T11:59:03;-16434.47;;;9.52;100.00
3590;BME280;1809;48.470;9.226;2023-03-15T12:01:29;-16411.00;;;8.68;100.00
3590;BME280;1809;48.470;9.226;2023-03-15T12:06:56;-16402.13;;;8.36;100.00
3590;BME280;1809;48.470;9.226;2023-03-15T12:11:58;-16424.63;;;9.17;100.00
3590;BME280;1809;48.470;9.226;2023-03-15T12:14:29;-16423.06;;;9.11;100.00
3590;BME280;1809;48.470;9.226;2023-03-15T12:20:39;-16424.06;;;9.15;100.00
3590;BME280;1809;48.470;9.226;2023-03-15T12:22:53;-16430.25;;;9.37;100.00
3590;BME280;1809;48.470;9.226;2023-03-15T12:25:30;-16427.16;;;9.26;96.37
3590;BME280;1809;48.470;9.226;2023-03-15T12:27:57;-16423.22;;;9.12;96.40
3590;BME280;1809;48.470;9.226;2023-03-15T12:30:37;-16425.31;;;9.19;100.00
3590;BME280;1809;48.470;9.226;2023-03-15T12:33:13;-16419.28;;;8.98;100.00
3590;BME280;1809;48.470;9.226;2023-03-15T12:35:40;-16417.03;;;8.90;100.00
3590;BME280;1809;48.470;9.226;2023-03-15T12:38:20;-16430.66;;;9.39;100.00
3590;BME280;1809;48.470;9.226;2023-03-15T12:40:56;-16441.19;;;9.77;100.00
3590;BME280;1809;48.470;9.226;2023-03-15T12:43:42;-16444.00;;;9.87;100.00
3590;BME280;1809;48.470;9.226;2023-03-15T12:49:10;-16437.25;;;9.62;100.00
3590;BME280;1809;48.470;9.226;2023-03-15T12:54:58;-16441.47;;;9.78;100.00
3590;BME280;1809;48.470;9.226;2023-03-15T13:00:14;-16437.84;;;9.64;100.00
3590;BME280;1809;48.470;9.226;2023-03-15T13:02:46;-16432.63;;;9.46;100.00
3590;BME280;1809;48.470;9.226;2023-03-15T13:05:19;-16433.47;;;9.49;100.00
3590;BME280;1809;48.470;9.226;2023-03-15T13:07:56;-16429.13;;;9.33;100.00
3590;BME280;1809;48.470;9.226;2023-03-15T13:13:07;-16435.03;;;9.54;100.00
3590;BME280;1809;48.470;9.226;2023-03-15T13:15:41;-16432.50;;;9.45;100.00
3590;BME280;1809;48.470;9.226;2023-03-15T13:18:14;-16438.09;;;9.65;100.00
3590;BME280;1809;48.470;9.226;2023-03-15T13:23:27;-16443.03;;;9.83;100.00
3590;BME280;1809;48.470;9.226;2023-03-15T13:28:50;-16429.13;;;9.33;100.00
3590;BME280;1809;48.470;9.226;2023-03-15T13:33:48;-16422.38;;;9.09;100.00
3590;BME280;1809;48.470;9.226;2023-03-15T13:36:17;-16415.34;;;8.84;100.00
3590;BME280;1809;48.470;9.226;2023-03-15T13:38:53;-16412.81;;;8.75;100.00
3590;BME280;1809;48.470;9.226;2023-03-15T13:41:27;-16408.03;;;8.57;100.00
3590;BME280;1809;48.470;9.226;2023-03-15T13:43:59;-16397.50;;;8.20;100.00
3590;BME280;1809;48.470;9.226;2023-03-15T13:46:26;-16402.41;;;8.37;100.00
3590;BME280;1809;48.470;9.226;2023-03-15T13:48:53;-16402.41;;;8.37;100.00
3590;BME280;1809;48.470;9.226;2023-03-15T13:51:30;-16401.72;;;8.35;100.00
3590;BME280;1809;48.470;9.226;2023-03-15T13:54:16;-16403.53;;;8.41;100.00
3590;BME280;1809;48.470;9.226;2023-03-15T13:59:44;-16419.28;;;8.98;100.00
3590;BME280;1809;48.470;9.226;2023-03-15T14:02:18;-16415.91;;;8.86;100.00
3590;BME280;1809;48.470;9.226;2023-03-15T14:04:51;-16421.81;;;9.07;100.00
3590;BME280;1809;48.470;9.226;2023-03-15T14:07:26;-16430.53;;;9.38;100.00
3590;BME280;1809;48.470;9.226;2023-03-15T14:10:29;-16440.06;;;9.72;100.00
3590;BME280;1809;48.470;9.226;2023-03-15T14:12:56;-16444.00;;;9.87;100.00
3590;BME280;1809;48.470;9.226;2023-03-15T14:15:34;-16447.66;;;10.00;100.00
3590;BME280;1809;48.470;9.226;2023-03-15T14:18:10;-16429.25;;;9.34;100.00